Latest Weather Observations for Jervis Bay Airfield

IDN60801

Issued at 8:32 am EST Monday 20 May 2019 (issued every 10 minutes, with the page automatically refreshed every 10 minutes)

About weather observations | Map of weather stations | Latest weather observations for NSW | Other Formats
Station Details ID: 068264 Name: JERVIS BAY AIRFIELD AWS Lat: -35.14 Lon: 150.70 Height: 57.18 m
Data from the previous 72 hours. | See also: Recent months at Jervis Bay Airfield
Date/Time
EST
Temp
°C
App
Temp
°C
Dew
Point
°C
Rel
Hum
%
Delta-T
°C
Wind Press
QNH
hPa
Press
MSL
hPa
Rain since
9am
mm
Dir  Spd
km/h
Gust
km/h
Spd
kts
Gust
kts
20/08:30am 16.7 15.5 12.8 78 2.2 N 11 15 6 8 1026.8 1026.7 0.0
20/08:00am 15.3 13.6 12.4 83 1.6 N 13 13 7 7 1026.7 1026.6 0.0
20/07:30am 14.6 12.9 12.6 88 1.1 N 13 15 7 8 1026.4 1026.3 0.0
20/07:00am 14.1 13.3 13.0 93 0.6 NE 9 11 5 6 1026.2 1026.1 0.0
20/06:30am 14.8 13.1 12.3 85 1.4 N 13 17 7 9 1026.2 1026.1 0.0
20/06:00am 15.2 14.4 12.9 86 1.3 NNE 9 13 5 7 1026.2 1026.1 0.0
20/05:30am 14.3 12.9 12.3 88 1.1 NE 11 15 6 8 1026.2 1026.1 0.0
20/05:00am 14.8 13.9 12.5 86 1.3 NNE 9 11 5 6 1026.2 1026.1 0.0
20/04:30am 14.7 13.4 12.6 87 1.2 NNE 11 15 6 8 1026.3 1026.2 0.0
20/04:00am 14.7 14.4 12.7 88 1.1 NNW 6 11 3 6 1026.3 1026.2 0.0
20/03:30am 13.0 12.0 12.4 96 0.3 E 9 17 5 9 1026.4 1026.3 0.0
20/03:00am 13.4 12.3 11.8 90 0.9 WNW 9 13 5 7 1026.4 1026.3 0.0
20/02:30am 13.9 13.4 12.6 92 0.7 NW 7 11 4 6 1026.8 1026.7 0.0
20/02:00am 13.5 12.6 12.7 95 0.4 WNW 9 13 5 7 1027.0 1026.9 0.0
20/01:30am 12.4 11.3 12.1 98 0.2 WNW 9 11 5 6 1027.0 1026.9 0.0
20/01:00am 11.9 11.2 11.4 97 0.3 NW 6 7 3 4 1027.2 1027.1 0.0
20/12:30am 12.1 12.6 11.5 96 0.3 CALM 0 0 0 0 1027.4 1027.3 0.0
20/12:00am 12.8 13.5 12.3 97 0.3 CALM 0 0 0 0 1027.6 1027.5 0.0
 
Date/Time
EST
Temp
°C
App
Temp
°C
Dew
Point
°C
Rel
Hum
%
Delta-T
°C
Wind Press
QNH
hPa
Press
MSL
hPa
Rain since
9am
mm
Dir  Spd
km/h
Gust
km/h
Spd
kts
Gust
kts
19/11:30pm 13.2 12.6 12.3 94 0.5 WNW 7 7 4 4 1027.8 1027.7 0.0
19/11:00pm 13.9 13.5 12.3 90 0.9 NNW 6 9 3 5 1028.1 1028.0 0.0
19/10:30pm 14.5 14.2 13.2 92 0.7 NNW 7 9 4 5 1028.1 1028.0 0.0
19/10:00pm 14.9 14.2 13.1 89 1.0 N 9 11 5 6 1028.3 1028.2 0.0
19/09:30pm 15.8 14.9 13.6 87 1.2 N 11 15 6 8 1028.3 1028.2 0.0
19/09:00pm 16.1 15.3 14.1 88 1.1 N 11 13 6 7 1028.3 1028.2 0.0
19/08:30pm 16.5 15.8 14.2 86 1.3 N 11 13 6 7 1028.3 1028.2 0.0
19/08:00pm 17.3 16.4 14.8 85 1.4 NNE 13 17 7 9 1028.2 1028.1 0.0
19/07:30pm 17.4 16.1 14.7 84 1.6 NE 15 19 8 10 1028.1 1028.0 0.0
19/07:00pm 17.4 15.5 14.1 81 1.9 NNE 17 20 9 11 1028.0 1027.9 0.0
19/06:30pm 17.6 15.5 13.5 77 2.3 NNE 17 20 9 11 1027.8 1027.7 0.0
19/06:00pm 17.6 15.3 13.1 75 2.5 NNE 17 22 9 12 1027.6 1027.5 0.0
19/05:30pm 17.5 15.3 13.4 77 2.3 NE 17 20 9 11 1027.6 1027.5 0.0
19/05:00pm 17.8 15.5 13.1 74 2.6 NE 17 24 9 13 1027.6 1027.5 0.0
19/04:30pm 18.4 15.8 13.3 72 2.9 NE 19 24 10 13 1027.7 1027.6 0.0
19/04:00pm 19.4 16.8 13.3 68 3.5 NE 19 24 10 13 1027.7 1027.6 0.0
19/03:30pm 20.0 17.4 13.2 65 3.9 NE 19 22 10 12 1027.9 1027.8 0.0
19/03:00pm 20.3 18.2 13.5 65 3.9 NE 17 24 9 13 1027.9 1027.8 0.0
19/02:30pm 20.2 17.7 13.6 66 3.8 NE 19 22 10 12 1028.0 1027.9 0.0
19/02:00pm 20.3 18.8 14.2 68 3.5 NE 15 19 8 10 1028.2 1028.1 0.0
19/01:30pm 20.8 19.6 14.0 65 3.9 ENE 13 19 7 10 1028.7 1028.7 0.0
19/01:00pm 20.5 19.7 13.9 66 3.8 NNE 11 15 6 8 1029.1 1029.1 0.0
19/12:30pm 20.8 20.2 13.5 63 4.2 NE 9 15 5 8 1029.4 1029.4 0.0
19/12:00pm 21.0 20.5 13.9 64 4.1 ENE 9 13 5 7 1029.8 1029.8 0.0
19/11:30am 20.7 20.1 13.4 63 4.2 NE 9 15 5 8 1030.2 1030.2 0.0
19/11:00am 19.9 20.4 14.0 69 3.4 ESE 4 7 2 4 1030.7 1030.7 0.0
19/10:30am 19.6 19.8 14.8 74 2.8 WNW 7 9 4 5 1031.1 1031.1 0.0
19/10:00am 18.3 18.4 15.4 83 1.7 W 9 11 5 6 1031.5 1031.5 0.0
19/09:30am 17.8 17.9 15.4 86 1.4 W 9 11 5 6 1031.6 1031.6 0.0
19/09:00am 17.1 17.8 16.0 93 0.6 W 7 9 4 5 1031.5 1031.5 0.2
19/08:30am 14.9 15.1 14.6 98 0.2 WSW 7 9 4 5 1031.4 1031.4 0.2
19/08:00am 12.6 11.6 12.3 98 0.2 W 9 11 5 6 1031.4 1031.4 0.2
19/07:30am 11.6 10.9 11.3 98 0.2 WSW 6 7 3 4 1031.3 1031.3 0.2
19/07:00am 11.7 10.8 11.4 98 0.2 W 7 9 4 5 1031.1 1031.1 0.2
19/06:30am 11.8 10.2 11.5 98 0.2 WSW 11 13 6 7 1030.7 1030.7 0.2
19/06:00am 11.6 10.7 11.3 98 0.2 WSW 7 11 4 6 1030.4 1030.4 0.2
19/05:30am 11.3 9.9 11.0 98 0.2 W 9 11 5 6 1030.2 1030.2 0.2
19/05:00am 11.8 10.2 11.5 98 0.2 WSW 11 13 6 7 1029.9 1029.9 0.2
19/04:30am 11.6 10.3 11.3 98 0.2 WSW 9 11 5 6 1029.7 1029.7 0.2
19/04:00am 11.7 10.8 11.4 98 0.2 WSW 7 9 4 5 1029.6 1029.6 0.2
19/03:30am 12.3 10.8 12.0 98 0.2 WSW 11 13 6 7 1029.6 1029.6 0.2
19/03:00am 11.8 10.5 11.3 97 0.3 SW 9 13 5 7 1029.7 1029.7 0.2
19/02:30am 13.1 12.3 12.8 98 0.2 SSW 9 13 5 7 1029.7 1029.7 0.2
19/02:00am 13.2 12.0 12.9 98 0.2 SW 11 13 6 7 1029.9 1029.9 0.2
19/01:30am 13.4 12.2 12.9 97 0.3 W 11 13 6 7 1030.2 1030.2 0.2
19/01:00am 14.6 13.8 14.1 97 0.3 WSW 11 15 6 8 1030.4 1030.4 0.2
19/12:30am 15.2 14.2 14.7 97 0.3 SW 13 17 7 9 1030.5 1030.5 0.2
19/12:00am 15.3 14.0 14.8 97 0.3 SSW 15 19 8 10 1030.7 1030.7 0.2
 
Date/Time
EST
Temp
°C
App
Temp
°C
Dew
Point
°C
Rel
Hum
%
Delta-T
°C
Wind Press
QNH
hPa
Press
MSL
hPa
Rain since
9am
mm
Dir  Spd
km/h
Gust
km/h
Spd
kts
Gust
kts
18/11:30pm 14.4 13.2 14.1 98 0.2 SSW 13 17 7 9 1031.1 1031.1 0.2
18/11:00pm 14.2 13.3 13.7 97 0.3 SW 11 15 6 8 1031.5 1031.5 0.0
18/10:30pm 13.9 13.0 13.6 98 0.2 SW 11 13 6 7 1031.6 1031.6 0.0
18/10:00pm 13.3 12.5 13.0 98 0.2 WSW 9 11 5 6 1031.4 1031.4 0.0
18/09:30pm 13.1 12.6 12.6 97 0.3 SW 7 11 4 6 1031.1 1031.1 0.0
18/09:00pm 14.1 13.2 13.8 98 0.2 SSW 11 13 6 7 1030.9 1030.9 0.0
18/08:30pm 14.1 13.2 13.8 98 0.2 WSW 11 13 6 7 1030.6 1030.6 0.0
18/08:00pm 14.2 13.4 13.9 98 0.2 WSW 11 13 6 7 1030.4 1030.4 0.0
18/07:30pm 13.6 13.4 13.1 97 0.3 WSW 6 7 3 4 1030.0 1030.0 0.0
18/07:00pm 14.5 13.8 14.2 98 0.2 WSW 11 13 6 7 1030.0 1030.0 0.0
18/06:30pm 13.8 13.2 13.5 98 0.2 W 9 11 5 6 1029.7 1029.7 0.0
18/06:00pm 13.8 13.6 13.0 95 0.4 W 6 7 3 4 1029.5 1029.5 0.0
18/05:30pm 15.0 15.0 14.2 95 0.5 WNW 7 7 4 4 1029.2 1029.2 0.0
18/05:00pm 16.5 16.7 14.2 86 1.3 S 6 6 3 3 1029.2 1029.2 0.0
18/04:30pm 17.8 17.7 14.9 83 1.7 SE 9 11 5 6 1028.7 1028.7 0.0
18/04:00pm 18.3 17.5 15.0 81 1.9 SE 13 17 7 9 1028.5 1028.5 0.0
18/03:30pm 18.5 17.0 15.2 81 1.9 SSE 17 20 9 11 1028.5 1028.5 0.0
18/03:00pm 18.9 17.8 15.2 79 2.2 SSE 15 19 8 10 1028.6 1028.6 0.0
18/02:30pm 19.1 17.9 14.1 73 2.9 S 13 17 7 9 1028.3 1028.2 0.0
18/02:00pm 19.0 18.3 14.3 74 2.7 SSE 11 17 6 9 1028.5 1028.5 0.0
18/01:30pm 19.3 18.8 14.8 75 2.6 SSE 11 17 6 9 1028.8 1028.8 0.0
18/01:00pm 19.5 19.1 15.2 76 2.5 S 11 17 6 9 1029.1 1029.1 0.0
18/12:30pm 18.9 18.0 14.8 77 2.4 SSW 13 19 7 10 1029.4 1029.4 0.0
18/12:00pm 18.7 17.4 14.8 78 2.3 S 15 20 8 11 1029.8 1029.8 0.0
18/11:30am 18.1 16.7 14.6 80 2.0 SSW 15 19 8 10 1030.2 1030.2 0.0
18/11:00am 18.0 17.0 14.7 81 1.9 SW 13 19 7 10 1030.5 1030.5 0.0
18/10:30am 17.9 17.1 15.0 83 1.7 SSW 13 19 7 10 1030.6 1030.6 0.0
18/10:00am 17.0 15.8 14.1 83 1.6 SW 13 17 7 9 1030.9 1030.9 0.0
18/09:30am 16.7 15.4 13.8 83 1.6 SW 13 17 7 9 1030.9 1030.9 0.0
18/09:00am 15.4 13.9 13.2 87 1.2 W 13 15 7 8 1031.0 1031.0 0.0
18/08:30am 13.8 12.6 12.7 93 0.6 W 11 17 6 9 1030.6 1030.6 0.0
18/08:00am 12.4 11.3 11.9 97 0.3 W 9 13 5 7 1030.4 1030.4 0.0
18/07:30am 11.4 8.9 10.9 97 0.3 W 15 17 8 9 1030.2 1030.2 0.0
18/07:00am 10.7 10.8 10.2 97 0.3 CALM 0 4 0 2 1029.7 1029.7 0.0
18/06:30am 10.6 9.4 10.3 98 0.2 WSW 7 9 4 5 1029.5 1029.5 0.0
18/06:00am 10.8 9.6 10.3 97 0.3 WNW 7 9 4 5 1029.3 1029.3 0.0
18/05:30am 11.3 10.4 10.8 97 0.3 W 6 9 3 5 1028.7 1028.7 0.0
18/05:00am 11.8 10.5 11.3 97 0.3 W 9 11 5 6 1028.6 1028.6 0.0
18/04:30am 12.5 10.7 12.0 97 0.3 WSW 13 17 7 9 1028.6 1028.6 0.0
18/04:00am 13.1 11.1 12.6 97 0.3 WSW 15 17 8 9 1028.5 1028.5 0.0
18/03:30am 13.1 11.8 12.6 97 0.3 SW 11 13 6 7 1028.4 1028.4 0.0
18/03:00am 13.2 11.6 12.7 97 0.3 WSW 13 13 7 7 1028.6 1028.6 0.0
18/02:30am 13.3 11.7 12.8 97 0.3 W 13 17 7 9 1028.7 1028.7 0.0
18/02:00am 14.8 13.5 13.8 94 0.6 SW 13 17 7 9 1028.5 1028.5 0.0
18/01:49am 15.0 13.8 13.9 93 0.6 SW 13 20 7 11 1028.6 1028.6 0.0
18/01:33am 15.3 13.7 14.0 92 0.7 SW 15 22 8 12 1028.5 1028.5 0.0
18/01:30am 15.4 13.9 14.1 92 0.7 SW 15 22 8 12 1028.5 1028.5 0.0
18/01:11am 15.2 13.7 14.1 93 0.6 SW 15 20 8 11 1028.4 1028.4 0.0
18/01:00am 15.3 13.8 14.2 93 0.6 SW 15 20 8 11 1028.5 1028.5 0.0
18/12:30am 15.4 13.5 14.1 92 0.7 SW 17 22 9 12 1028.5 1028.5 0.0
18/12:28am 15.5 13.6 14.2 92 0.7 SW 17 22 9 12 1028.5 1028.5 0.0
18/12:00am 15.7 13.3 14.4 92 0.7 SW 20 32 11 17 1028.4 1028.4 0.0
 
Date/Time
EST
Temp
°C
App
Temp
°C
Dew
Point
°C
Rel
Hum
%
Delta-T
°C
Wind Press
QNH
hPa
Press
MSL
hPa
Rain since
9am
mm
Dir  Spd
km/h
Gust
km/h
Spd
kts
Gust
kts
17/11:30pm 15.8 13.7 14.7 93 0.6 SW 19 24 10 13 1028.3 1028.2 0.0
17/11:00pm 15.9 13.7 14.8 93 0.6 SW 20 28 11 15 1028.2 1028.1 0.0
17/10:30pm 16.2 13.7 15.1 93 0.6 SW 22 30 12 16 1028.5 1028.5 0.0
17/10:00pm 16.4 14.3 15.1 92 0.7 SW 20 30 11 16 1028.6 1028.6 0.0
17/09:30pm 16.3 14.1 15.0 92 0.8 SW 20 28 11 15 1028.6 1028.6 0.0
17/09:00pm 16.1 13.9 15.0 93 0.6 SW 20 28 11 15 1028.4 1028.4 0.0
17/08:30pm 16.3 14.5 15.5 95 0.5 SW 19 24 10 13 1027.9 1027.8 0.0
17/08:00pm 16.9 15.4 16.4 97 0.3 SW 19 24 10 13 1027.6 1027.5 0.0
17/07:30pm 16.2 14.9 14.9 92 0.8 SW 15 20 8 11 1027.2 1027.1 0.0
17/07:00pm 15.5 15.6 13.9 90 0.9 E 6 7 3 4 1026.5 1026.4 0.0
17/06:30pm 15.2 14.6 13.6 90 0.9 ENE 9 9 5 5 1026.3 1026.2 0.0
17/06:00pm 15.7 15.7 14.1 90 0.9 ENE 7 9 4 5 1026.0 1025.9 0.0
17/05:30pm 16.4 15.9 13.7 84 1.5 ENE 9 11 5 6 1025.6 1025.5 0.0
17/05:00pm 17.6 16.8 13.9 79 2.1 NE 11 15 6 8 1025.3 1025.2 0.0
17/04:30pm 19.0 17.7 13.8 72 3.0 NNE 13 17 7 9 1025.1 1025.0 0.0
17/04:00pm 19.9 18.9 13.4 66 3.7 NNE 11 17 6 9 1024.9 1024.8 0.0
17/03:30pm 20.4 18.8 12.9 62 4.3 NNE 13 17 7 9 1024.8 1024.7 0.0
17/03:00pm 21.0 19.1 12.9 60 4.6 NNE 15 19 8 10 1024.7 1024.6 0.0
17/02:30pm 21.4 19.4 13.8 62 4.4 NE 17 22 9 12 1024.5 1024.4 0.0
17/02:00pm 21.7 19.8 13.1 58 4.9 NE 15 19 8 10 1024.5 1024.4 0.0
17/01:30pm 21.8 19.8 12.6 56 5.2 NE 15 19 8 10 1024.9 1024.8 0.0
17/01:00pm 21.3 19.9 13.5 61 4.5 NE 13 17 7 9 1025.2 1025.1 0.0
17/12:30pm 21.3 19.9 13.5 61 4.5 NNE 13 17 7 9 1025.6 1025.5 0.0
17/12:00pm 21.9 21.1 13.0 57 5.1 N 9 19 5 10 1026.0 1025.9 0.0
17/11:30am 21.0 19.5 13.2 61 4.5 NNE 13 19 7 10 1026.6 1026.5 0.0
17/11:00am 20.2 18.7 13.2 64 4.0 N 13 17 7 9 1027.0 1026.9 0.0
17/10:30am 19.2 17.7 13.2 68 3.4 N 13 19 7 10 1027.3 1027.2 0.0
17/10:00am 17.9 17.2 13.2 74 2.6 NNE 9 11 5 6 1027.4 1027.3 0.0
17/09:30am 16.3 15.9 12.3 77 2.2 NE 6 9 3 5 1027.4 1027.3 0.0
17/09:00am 15.9 14.5 12.1 78 2.1 WNW 11 15 6 8 1027.3 1027.2 0.0

Other formats

Comma delimited format used in spreadsheet applications
http://www.bom.gov.au/fwo/IDN60801/IDN60801.94751.axf

JavaScript Object Notation format (JSON) in row-major order
http://www.bom.gov.au/fwo/IDN60801/IDN60801.94751.json

Data quality

Most of these data are generated automatically and are frequently updated. Quality checks on data are not normally performed. It is possible for incorrect values to appear. Refer to information at About Latest Weather Observations and please check the disclaimer before using these data.